createdAt,value
2018-09-11T00:00:30.192Z,97116.00
2018-09-11T00:03:00.297Z,97112.00
2018-09-11T00:05:30.420Z,97106.00
2018-09-11T00:08:00.517Z,97105.00
2018-09-11T00:10:30.680Z,97109.00
2018-09-11T00:13:00.749Z,97106.00
2018-09-11T00:15:30.884Z,97098.00
2018-09-11T00:18:00.968Z,97097.00
2018-09-11T00:20:31.047Z,97088.00
2018-09-11T00:23:01.228Z,97092.00
2018-09-11T00:25:31.324Z,97085.00
2018-09-11T00:28:01.408Z,97080.00
2018-09-11T00:30:31.578Z,97075.00
2018-09-11T00:33:01.752Z,97082.00
2018-09-11T00:35:32.788Z,97084.00
2018-09-11T00:38:02.869Z,97087.00
2018-09-11T00:40:32.990Z,97088.00
2018-09-11T00:43:03.109Z,97101.00
2018-09-11T00:45:33.191Z,97098.00
2018-09-11T00:48:03.290Z,97100.00
2018-09-11T00:50:33.393Z,97100.00
2018-09-11T00:53:03.500Z,97098.00
2018-09-11T00:55:33.603Z,97100.00
2018-09-11T00:58:03.712Z,97096.00
2018-09-11T01:00:33.798Z,97102.00
2018-09-11T01:03:03.888Z,97096.00
2018-09-11T01:05:33.984Z,97107.00
2018-09-11T01:08:04.056Z,97105.00
2018-09-11T01:10:34.234Z,97104.00
2018-09-11T01:13:04.343Z,97099.00
2018-09-11T01:15:34.428Z,97101.00
2018-09-11T01:18:04.523Z,97103.00
2018-09-11T01:20:34.633Z,97096.00
2018-09-11T01:23:04.752Z,97096.00
2018-09-11T01:25:34.855Z,97097.00
2018-09-11T01:28:04.945Z,97101.00
2018-09-11T01:30:35.047Z,97103.00
2018-09-11T01:33:05.145Z,97098.00
2018-09-11T01:35:35.203Z,97102.00
2018-09-11T01:38:05.292Z,97108.00
2018-09-11T01:40:35.368Z,97105.00
2018-09-11T01:43:05.528Z,97104.00
2018-09-11T01:45:35.588Z,97102.00
2018-09-11T01:48:05.712Z,97102.00
2018-09-11T01:50:35.777Z,97105.00
2018-09-11T01:53:05.884Z,97092.00
2018-09-11T01:55:35.940Z,97087.00
2018-09-11T01:58:06.468Z,97088.00
2018-09-11T02:00:36.548Z,97090.00
2018-09-11T02:03:06.627Z,97082.00
2018-09-11T02:05:36.716Z,97084.00
2018-09-11T02:08:06.812Z,97097.00
2018-09-11T02:10:36.891Z,97090.00
2018-09-11T02:13:07.208Z,97091.00
2018-09-11T02:15:37.296Z,97083.00
2018-09-11T02:18:07.463Z,97086.00
2018-09-11T02:20:37.537Z,97084.00
2018-09-11T02:23:07.672Z,97090.00
2018-09-11T02:25:37.772Z,97102.00
2018-09-11T02:28:07.932Z,97091.00
2018-09-11T02:30:37.989Z,97102.00
2018-09-11T02:33:08.065Z,97092.00
2018-09-11T02:35:38.217Z,97096.00
2018-09-11T02:38:08.221Z,97080.00
2018-09-11T02:40:38.303Z,97087.00
2018-09-11T02:43:08.364Z,97085.00
2018-09-11T02:45:38.429Z,97086.00
2018-09-11T02:48:08.488Z,97090.00
2018-09-11T02:50:38.580Z,97088.00
2018-09-11T02:53:08.648Z,97092.00
2018-09-11T02:55:38.744Z,97088.00
2018-09-11T02:58:08.819Z,97094.00
2018-09-11T03:00:38.892Z,97104.00
2018-09-11T03:03:09.261Z,97107.00
2018-09-11T03:05:39.321Z,97105.00
2018-09-11T03:08:09.417Z,97100.00
2018-09-11T03:10:39.573Z,97107.00
2018-09-11T03:13:09.648Z,97103.00
2018-09-11T03:15:39.721Z,97111.00
2018-09-11T03:18:09.776Z,97109.00
2018-09-11T03:20:39.868Z,97107.00
2018-09-11T03:23:09.932Z,97112.00
2018-09-11T03:25:40.084Z,97118.00
2018-09-11T03:28:10.181Z,97114.00
2018-09-11T03:30:40.244Z,97112.00
2018-09-11T03:33:10.316Z,97110.00
2018-09-11T03:35:40.392Z,97108.00
2018-09-11T03:38:10.504Z,97112.00
2018-09-11T03:40:40.671Z,97111.00
2018-09-11T03:43:10.807Z,97111.00
2018-09-11T03:45:45.073Z,97111.00
2018-09-11T03:48:15.244Z,97110.00
2018-09-11T03:50:46.185Z,97118.00
2018-09-11T03:53:16.452Z,97109.00
2018-09-11T03:55:47.143Z,97108.00
2018-09-11T03:58:18.258Z,97111.00
2018-09-11T04:00:48.344Z,97115.00
2018-09-11T04:03:18.494Z,97114.00
2018-09-11T04:05:48.596Z,97112.00
2018-09-11T04:08:18.692Z,97120.00
2018-09-11T04:10:48.760Z,97109.00
2018-09-11T04:13:19.165Z,97114.00
2018-09-11T04:15:49.241Z,97113.00
2018-09-11T04:18:19.300Z,97117.00
2018-09-11T04:20:49.376Z,97127.00
2018-09-11T04:23:19.520Z,97113.00
2018-09-11T04:25:49.641Z,97112.00
2018-09-11T04:28:41.804Z,97113.00
2018-09-11T04:31:12.096Z,97114.00
2018-09-11T04:33:42.218Z,97108.00
2018-09-11T04:36:12.346Z,97104.00
2018-09-11T04:38:42.384Z,97113.00
2018-09-11T04:41:12.504Z,97117.00
2018-09-11T04:43:42.596Z,97122.00
2018-09-11T04:46:13.248Z,97119.00
2018-09-11T04:48:45.096Z,97120.00
2018-09-11T04:51:15.384Z,97126.00
2018-09-11T04:53:45.554Z,97119.00
2018-09-11T04:56:15.644Z,97113.00
2018-09-11T04:58:45.685Z,97119.00
2018-09-11T05:01:15.780Z,97125.00
2018-09-11T05:03:45.852Z,97128.00
2018-09-11T05:06:15.954Z,97131.00
2018-09-11T05:08:46.056Z,97134.00
2018-09-11T05:11:16.164Z,97130.00
2018-09-11T05:13:46.228Z,97138.00
2018-09-11T05:16:16.356Z,97137.00
2018-09-11T05:18:46.436Z,97137.00
2018-09-11T05:21:16.508Z,97137.00
2018-09-11T05:23:46.588Z,97139.00
2018-09-11T05:26:16.645Z,97149.00
2018-09-11T05:28:46.709Z,97153.00
2018-09-11T05:31:16.793Z,97147.00
2018-09-11T05:33:46.877Z,97148.00
2018-09-11T05:36:16.951Z,97151.00
2018-09-11T05:38:47.023Z,97154.00
2018-09-11T05:41:17.964Z,97151.00
2018-09-11T05:43:48.040Z,97155.00
2018-09-11T05:46:18.182Z,97153.00
2018-09-11T05:48:48.236Z,97158.00
2018-09-11T05:51:18.372Z,97158.00
2018-09-11T05:53:48.428Z,97162.00
2018-09-11T05:56:18.499Z,97162.00
2018-09-11T05:58:48.567Z,97164.00
2018-09-11T06:01:18.681Z,97165.00
2018-09-11T06:03:48.761Z,97174.00
2018-09-11T06:06:18.936Z,97173.00
2018-09-11T06:08:49.005Z,97185.00
2018-09-11T06:11:19.164Z,97176.00
2018-09-11T06:13:49.232Z,97184.00
2018-09-11T06:16:19.359Z,97179.00
2018-09-11T06:18:49.491Z,97185.00
2018-09-11T06:21:19.556Z,97180.00
2018-09-11T06:23:49.663Z,97184.00
2018-09-11T06:26:19.804Z,97188.00
2018-09-11T06:28:49.860Z,97185.00
2018-09-11T06:31:19.936Z,97188.00
2018-09-11T06:33:50.036Z,97191.00
2018-09-11T06:36:20.113Z,97193.00
2018-09-11T06:38:50.172Z,97186.00
2018-09-11T06:41:20.469Z,97186.00
2018-09-11T06:43:50.327Z,97187.00
2018-09-11T06:46:20.505Z,97183.00
2018-09-11T06:48:50.559Z,97188.00
2018-09-11T06:51:20.672Z,97187.00
2018-09-11T06:53:50.755Z,97188.00
2018-09-11T06:56:20.848Z,97183.00
2018-09-11T06:58:50.904Z,97196.00
2018-09-11T07:01:20.977Z,97190.00
2018-09-11T07:03:51.081Z,97198.00
2018-09-11T07:06:21.168Z,97198.00
2018-09-11T07:08:51.272Z,97199.00
2018-09-11T07:11:21.347Z,97200.00
2018-09-11T07:13:52.167Z,97203.00
2018-09-11T07:16:22.264Z,97205.00
2018-09-11T07:18:52.352Z,97201.00
2018-09-11T07:21:22.536Z,97217.00
2018-09-11T07:23:52.620Z,97210.00
2018-09-11T07:26:22.673Z,97215.00
2018-09-11T07:28:52.740Z,97215.00
2018-09-11T07:31:22.811Z,97220.00
2018-09-11T07:33:52.896Z,97219.00
2018-09-11T07:36:23.051Z,97219.00
2018-09-11T07:38:53.074Z,97212.00
2018-09-11T07:41:23.136Z,97216.00
2018-09-11T07:43:53.216Z,97224.00
2018-09-11T07:46:23.284Z,97221.00
2018-09-11T07:48:53.385Z,97228.00
2018-09-11T07:51:23.451Z,97228.00
2018-09-11T07:53:53.556Z,97230.00
2018-09-11T07:56:23.639Z,97238.00
2018-09-11T07:58:53.720Z,97239.00
2018-09-11T08:01:23.796Z,97245.00
2018-09-11T08:03:53.940Z,97236.00
2018-09-11T08:06:24.001Z,97243.00
2018-09-11T08:08:54.132Z,97249.00
2018-09-11T08:11:24.220Z,97249.00
2018-09-11T08:13:54.459Z,97252.00
2018-09-11T08:16:24.665Z,97257.00
2018-09-11T08:18:54.680Z,97258.00
2018-09-11T08:21:24.760Z,97260.00
2018-09-11T08:23:54.846Z,97262.00
2018-09-11T08:26:25.181Z,97268.00
2018-09-11T08:28:55.600Z,97263.00
2018-09-11T08:31:25.672Z,97275.00
2018-09-11T08:33:55.733Z,97270.00
2018-09-11T08:36:25.868Z,97272.00
2018-09-11T08:38:55.960Z,97278.00
2018-09-11T08:41:26.080Z,97265.00
2018-09-11T08:43:56.313Z,97271.00
2018-09-11T08:46:26.384Z,97265.00
2018-09-11T08:48:56.560Z,97272.00
2018-09-11T08:51:26.612Z,97276.00
2018-09-11T08:53:56.688Z,97274.00
2018-09-11T08:56:26.757Z,97279.00
2018-09-11T08:58:56.835Z,97281.00
2018-09-11T09:01:26.909Z,97281.00
2018-09-11T09:03:57.008Z,97265.00
2018-09-11T09:06:27.106Z,97275.00
2018-09-11T09:08:57.213Z,97267.00
2018-09-11T09:11:27.281Z,97280.00
2018-09-11T09:13:57.379Z,97266.00
2018-09-11T09:16:27.448Z,97273.00
2018-09-11T09:18:57.538Z,97266.00
2018-09-11T09:21:27.613Z,97268.00
2018-09-11T09:23:57.769Z,97265.00
2018-09-11T09:26:28.084Z,97268.00
2018-09-11T09:28:58.233Z,97265.00
2018-09-11T09:31:28.327Z,97270.00
2018-09-11T09:33:58.419Z,97269.00
2018-09-11T09:36:28.591Z,97261.00
2018-09-11T09:38:58.712Z,97263.00
2018-09-11T09:41:28.780Z,97261.00
2018-09-11T09:43:58.862Z,97266.00
2018-09-11T09:46:28.925Z,97262.00
2018-09-11T09:48:59.014Z,97265.00
2018-09-11T09:51:29.133Z,97264.00
2018-09-11T09:53:59.626Z,97262.00
2018-09-11T09:56:29.692Z,97265.00
2018-09-11T09:58:59.857Z,97263.00
2018-09-11T10:01:35.188Z,97256.00
2018-09-11T10:04:05.382Z,97263.00
2018-09-11T10:06:35.715Z,97259.00
2018-09-11T10:09:08.676Z,97268.00
2018-09-11T10:11:38.797Z,97254.00
2018-09-11T10:14:08.900Z,97248.00
2018-09-11T10:16:39.068Z,97252.00
2018-09-11T10:19:09.200Z,97257.00
2018-09-11T10:21:39.279Z,97243.00
2018-09-11T10:24:09.375Z,97244.00
2018-09-11T10:26:39.460Z,97249.00
2018-09-11T10:29:09.604Z,97249.00
2018-09-11T10:31:39.761Z,97245.00
2018-09-11T10:34:09.909Z,97243.00
2018-09-11T10:36:39.968Z,97249.00
2018-09-11T10:39:10.504Z,97247.00
2018-09-11T10:41:40.608Z,97245.00
2018-09-11T10:44:10.708Z,97253.00
2018-09-11T10:46:40.817Z,97241.00
2018-09-11T10:49:10.912Z,97241.00
2018-09-11T10:51:40.984Z,97240.00
2018-09-11T10:54:11.080Z,97233.00
2018-09-11T10:56:41.156Z,97232.00
2018-09-11T10:59:11.252Z,97229.00
2018-09-11T11:01:41.364Z,97236.00
2018-09-11T11:04:11.492Z,97227.00
2018-09-11T11:06:41.564Z,97229.00
2018-09-11T11:09:12.167Z,97231.00
2018-09-11T11:11:42.239Z,97225.00
2018-09-11T11:14:12.357Z,97224.00
2018-09-11T11:16:42.420Z,97215.00
2018-09-11T11:19:12.512Z,97224.00
2018-09-11T11:21:42.599Z,97222.00
2018-09-11T11:24:12.959Z,97216.00
2018-09-11T11:26:43.036Z,97211.00
2018-09-11T11:29:13.110Z,97210.00
2018-09-11T11:31:43.174Z,97214.00
2018-09-11T11:34:13.257Z,97201.00
2018-09-11T11:36:43.588Z,97202.00
2018-09-11T11:39:13.480Z,97201.00
2018-09-11T11:41:43.614Z,97203.00
2018-09-11T11:44:13.632Z,97200.00
2018-09-11T11:46:43.737Z,97189.00
2018-09-11T11:49:13.944Z,97189.00
2018-09-11T11:51:44.024Z,97192.00
2018-09-11T11:54:14.111Z,97182.00
2018-09-11T11:56:44.180Z,97186.00
2018-09-11T11:59:14.284Z,97185.00
2018-09-11T12:01:44.448Z,97185.00
2018-09-11T12:04:14.544Z,97183.00
2018-09-11T12:06:44.604Z,97195.00
2018-09-11T12:09:14.720Z,97185.00
2018-09-11T12:11:44.796Z,97176.00
2018-09-11T12:14:14.876Z,97171.00
2018-09-11T12:16:44.952Z,97171.00
2018-09-11T12:19:15.072Z,97172.00
2018-09-11T12:21:45.148Z,97167.00
2018-09-11T12:24:15.260Z,97174.00
2018-09-11T12:26:45.333Z,97173.00
2018-09-11T12:29:15.426Z,97166.00
2018-09-11T12:31:45.508Z,97165.00
2018-09-11T12:34:15.607Z,97169.00
2018-09-11T12:36:45.676Z,97175.00
2018-09-11T12:39:15.737Z,97176.00
2018-09-11T12:41:45.825Z,97175.00
2018-09-11T12:44:15.881Z,97173.00
2018-09-11T12:46:46.155Z,97174.00
2018-09-11T12:49:16.044Z,97169.00
2018-09-11T12:51:46.113Z,97174.00
2018-09-11T12:54:16.216Z,97179.00
2018-09-11T12:56:46.336Z,97182.00
2018-09-11T12:59:16.460Z,97181.00
2018-09-11T13:01:46.520Z,97172.00
2018-09-11T13:04:16.592Z,97173.00
2018-09-11T13:06:46.720Z,97169.00
2018-09-11T13:09:16.833Z,97172.00
2018-09-11T13:11:46.846Z,97159.00
2018-09-11T13:14:16.929Z,97167.00
2018-09-11T13:16:46.992Z,97171.00
2018-09-11T13:19:17.080Z,97174.00
2018-09-11T13:21:47.256Z,97166.00
2018-09-11T13:24:17.396Z,97178.00
2018-09-11T13:26:47.473Z,97172.00
2018-09-11T13:29:17.568Z,97162.00
2018-09-11T13:31:47.664Z,97163.00
2018-09-11T13:34:17.745Z,97161.00
2018-09-11T13:36:47.812Z,97154.00
2018-09-11T13:39:18.024Z,97158.00
2018-09-11T13:41:48.149Z,97154.00
2018-09-11T13:44:18.242Z,97155.00
2018-09-11T13:46:48.314Z,97152.00
2018-09-11T13:49:18.391Z,97145.00
2018-09-11T13:51:48.489Z,97144.00
2018-09-11T13:54:18.564Z,97138.00
2018-09-11T13:56:48.761Z,97142.00
2018-09-11T13:59:19.048Z,97131.00
2018-09-11T14:01:49.208Z,97130.00
2018-09-11T14:04:19.324Z,97136.00
2018-09-11T14:06:49.487Z,97132.00
2018-09-11T14:09:19.592Z,97132.00
2018-09-11T14:11:49.702Z,97128.00
2018-09-11T14:14:19.758Z,97131.00
2018-09-11T14:16:49.876Z,97131.00
2018-09-11T14:19:19.955Z,97142.00
2018-09-11T14:21:50.040Z,97136.00
2018-09-11T14:24:20.092Z,97128.00
2018-09-11T14:26:50.265Z,97132.00
2018-09-11T14:29:20.418Z,97125.00
2018-09-11T14:31:50.893Z,97119.00
2018-09-11T14:34:20.986Z,97119.00
2018-09-11T14:36:51.297Z,97118.00
2018-09-11T14:39:21.508Z,97113.00
2018-09-11T14:41:51.601Z,97118.00
2018-09-11T14:44:21.701Z,97117.00
2018-09-11T14:46:51.880Z,97114.00
2018-09-11T14:49:21.948Z,97107.00
2018-09-11T14:51:52.050Z,97108.00
2018-09-11T14:54:22.109Z,97117.00
2018-09-11T14:56:52.297Z,97112.00
2018-09-11T14:59:22.414Z,97113.00
2018-09-11T15:01:52.596Z,97120.00
2018-09-11T15:04:22.753Z,97123.00
2018-09-11T15:06:52.944Z,97116.00
2018-09-11T15:09:23.029Z,97118.00
2018-09-11T15:11:53.184Z,97111.00
2018-09-11T15:14:23.261Z,97117.00
2018-09-11T15:16:53.361Z,97115.00
2018-09-11T15:19:23.465Z,97111.00
2018-09-11T15:21:53.532Z,97113.00
2018-09-11T15:24:23.608Z,97110.00
2018-09-11T15:26:54.211Z,97112.00
2018-09-11T15:29:24.287Z,97113.00
2018-09-11T15:31:54.436Z,97108.00
2018-09-11T15:34:24.529Z,97107.00
2018-09-11T15:36:54.684Z,97107.00
2018-09-11T15:39:24.775Z,97110.00
2018-09-11T15:41:54.862Z,97116.00
2018-09-11T15:44:24.920Z,97101.00
2018-09-11T15:46:55.450Z,97103.00
2018-09-11T15:49:25.633Z,97101.00
2018-09-11T15:51:55.792Z,97096.00
2018-09-11T15:54:25.876Z,97096.00
2018-09-11T15:56:56.073Z,97107.00
2018-09-11T15:59:26.120Z,97102.00
2018-09-11T16:01:56.189Z,97105.00
2018-09-11T16:04:26.243Z,97109.00
2018-09-11T16:06:56.439Z,97106.00
2018-09-11T16:09:26.505Z,97097.00
2018-09-11T16:11:56.576Z,97104.00
2018-09-11T16:14:26.665Z,97102.00
2018-09-11T16:16:56.752Z,97112.00
2018-09-11T16:19:26.852Z,97113.00
2018-09-11T16:21:56.985Z,97107.00
2018-09-11T16:24:27.044Z,97114.00
2018-09-11T16:26:57.152Z,97108.00
2018-09-11T16:29:27.220Z,97119.00
2018-09-11T16:31:57.324Z,97111.00
2018-09-11T16:34:27.397Z,97108.00
2018-09-11T16:36:57.485Z,97105.00
2018-09-11T16:39:27.565Z,97099.00
2018-09-11T16:41:57.656Z,97099.00
2018-09-11T16:44:27.732Z,97097.00
2018-09-11T16:46:57.801Z,97096.00
2018-09-11T16:49:27.856Z,97100.00
2018-09-11T16:51:57.923Z,97094.00
2018-09-11T16:54:28.033Z,97095.00
2018-09-11T16:56:58.138Z,97097.00
2018-09-11T16:59:28.236Z,97088.00
2018-09-11T17:01:58.350Z,97089.00
2018-09-11T17:04:28.368Z,97084.00
2018-09-11T17:06:58.468Z,97085.00
2018-09-11T17:09:28.562Z,97087.00
2018-09-11T17:11:58.671Z,97082.00
2018-09-11T17:14:28.736Z,97090.00
2018-09-11T17:16:58.839Z,97082.00
2018-09-11T17:19:28.928Z,97087.00
2018-09-11T17:21:59.109Z,97091.00
2018-09-11T17:24:29.182Z,97091.00
2018-09-11T17:26:59.325Z,97094.00
2018-09-11T17:29:29.481Z,97090.00
2018-09-11T17:31:59.568Z,97093.00
2018-09-11T17:34:29.649Z,97102.00
2018-09-11T17:36:59.756Z,97099.00
2018-09-11T17:39:29.866Z,97102.00
2018-09-11T17:42:00.012Z,97102.00
2018-09-11T17:44:30.105Z,97105.00
2018-09-11T17:47:00.172Z,97108.00
2018-09-11T17:49:30.257Z,97104.00
2018-09-11T17:52:00.331Z,97107.00
2018-09-11T17:54:30.468Z,97104.00
2018-09-11T17:57:00.553Z,97106.00
2018-09-11T17:59:30.624Z,97104.00
2018-09-11T18:02:00.713Z,97111.00
2018-09-11T18:04:30.792Z,97124.00
2018-09-11T18:07:00.884Z,97120.00
2018-09-11T18:09:30.960Z,97137.00
2018-09-11T18:12:01.051Z,97128.00
2018-09-11T18:14:31.116Z,97137.00
2018-09-11T18:17:01.224Z,97132.00
2018-09-11T18:19:31.347Z,97143.00
2018-09-11T18:22:01.444Z,97139.00
2018-09-11T18:24:31.552Z,97138.00
2018-09-11T18:27:01.669Z,97133.00
2018-09-11T18:29:31.742Z,97133.00
2018-09-11T18:32:01.821Z,97140.00
2018-09-11T18:34:31.908Z,97144.00
2018-09-11T18:37:01.973Z,97139.00
2018-09-11T18:39:32.058Z,97150.00
2018-09-11T18:42:02.132Z,97139.00
2018-09-11T18:44:32.348Z,97140.00
2018-09-11T18:47:02.414Z,97150.00
2018-09-11T18:49:32.500Z,97147.00
2018-09-11T18:52:02.699Z,97151.00
2018-09-11T18:54:32.781Z,97148.00
2018-09-11T18:57:02.852Z,97148.00
2018-09-11T18:59:32.955Z,97152.00
2018-09-11T19:02:03.043Z,97157.00
2018-09-11T19:04:33.154Z,97149.00
2018-09-11T19:07:03.232Z,97156.00
2018-09-11T19:09:33.356Z,97160.00
2018-09-11T19:12:03.490Z,97165.00
2018-09-11T19:14:33.653Z,97167.00
2018-09-11T19:17:03.796Z,97175.00
2018-09-11T19:19:33.884Z,97174.00
2018-09-11T19:22:04.000Z,97168.00
2018-09-11T19:24:34.104Z,97172.00
2018-09-11T19:27:04.181Z,97174.00
2018-09-11T19:29:34.268Z,97171.00
2018-09-11T19:32:04.434Z,97174.00
2018-09-11T19:34:34.552Z,97175.00
2018-09-11T19:37:04.656Z,97175.00
2018-09-11T19:39:34.768Z,97175.00
2018-09-11T19:42:04.897Z,97185.00
2018-09-11T19:44:34.993Z,97183.00
2018-09-11T19:47:05.084Z,97183.00
2018-09-11T19:49:35.253Z,97186.00
2018-09-11T19:52:05.476Z,97191.00
2018-09-11T19:54:35.552Z,97202.00
2018-09-11T19:57:05.676Z,97197.00
2018-09-11T19:59:35.740Z,97195.00
2018-09-11T20:02:05.869Z,97196.00
2018-09-11T20:04:36.007Z,97191.00
2018-09-11T20:07:06.204Z,97192.00
2018-09-11T20:09:36.321Z,97193.00
2018-09-11T20:12:06.656Z,97192.00
2018-09-11T20:14:36.773Z,97189.00
2018-09-11T20:17:06.912Z,97190.00
2018-09-11T20:19:37.011Z,97188.00
2018-09-11T20:22:10.564Z,97186.00
2018-09-11T20:24:40.660Z,97196.00
2018-09-11T20:27:11.288Z,97195.00
2018-09-11T20:29:41.395Z,97200.00
2018-09-11T20:32:11.552Z,97208.00
2018-09-11T20:34:41.580Z,97209.00
2018-09-11T20:37:11.661Z,97211.00
2018-09-11T20:39:41.790Z,97217.00
2018-09-11T20:42:11.866Z,97208.00
2018-09-11T20:44:41.945Z,97219.00
2018-09-11T20:47:12.019Z,97204.00
2018-09-11T20:49:42.103Z,97204.00
2018-09-11T20:52:12.220Z,97207.00
2018-09-11T20:54:42.345Z,97201.00
2018-09-11T20:57:12.452Z,97204.00
2018-09-11T20:59:42.853Z,97208.00
2018-09-11T21:02:12.953Z,97200.00
2018-09-11T21:04:43.080Z,97211.00
2018-09-11T21:07:13.155Z,97202.00
2018-09-11T21:09:43.254Z,97207.00
2018-09-11T21:12:13.365Z,97208.00
2018-09-11T21:14:43.463Z,97208.00
2018-09-11T21:17:13.546Z,97214.00
2018-09-11T21:19:43.613Z,97206.00
2018-09-11T21:22:13.719Z,97209.00
2018-09-11T21:24:43.801Z,97206.00
2018-09-11T21:27:13.893Z,97200.00
2018-09-11T21:29:43.964Z,97194.00
2018-09-11T21:32:14.040Z,97186.00
2018-09-11T21:34:44.197Z,97192.00
2018-09-11T21:37:14.300Z,97197.00
2018-09-11T21:39:44.408Z,97194.00
2018-09-11T21:42:14.499Z,97200.00
2018-09-11T21:44:44.600Z,97196.00
2018-09-11T21:47:14.680Z,97188.00
2018-09-11T21:49:44.748Z,97184.00
2018-09-11T21:52:14.896Z,97192.00
2018-09-11T21:54:44.956Z,97181.00
2018-09-11T21:57:15.037Z,97183.00
2018-09-11T21:59:45.151Z,97183.00
2018-09-11T22:02:15.212Z,97185.00
2018-09-11T22:04:45.308Z,97186.00
2018-09-11T22:07:15.380Z,97184.00
2018-09-11T22:09:50.252Z,97184.00
2018-09-11T22:12:20.412Z,97184.00
2018-09-11T22:14:50.572Z,97181.00
2018-09-11T22:17:20.656Z,97160.00
2018-09-11T22:19:50.763Z,97167.00
2018-09-11T22:22:20.868Z,97166.00
2018-09-11T22:24:50.990Z,97161.00
2018-09-11T22:27:21.056Z,97169.00
2018-09-11T22:29:51.216Z,97162.00
2018-09-11T22:32:21.296Z,97165.00
2018-09-11T22:34:51.440Z,97173.00
2018-09-11T22:37:21.572Z,97174.00
2018-09-11T22:39:51.716Z,97168.00
2018-09-11T22:42:21.808Z,97169.00
2018-09-11T22:44:51.919Z,97172.00
2018-09-11T22:47:22.003Z,97164.00
2018-09-11T22:49:52.107Z,97170.00
2018-09-11T22:52:22.168Z,97174.00
2018-09-11T22:54:52.256Z,97170.00
2018-09-11T22:57:22.402Z,97170.00
2018-09-11T22:59:52.476Z,97162.00
2018-09-11T23:02:22.576Z,97162.00
2018-09-11T23:04:52.678Z,97165.00
2018-09-11T23:07:22.768Z,97168.00
2018-09-11T23:09:52.840Z,97169.00
2018-09-11T23:12:22.938Z,97165.00
2018-09-11T23:14:53.012Z,97169.00
2018-09-11T23:17:23.180Z,97164.00
2018-09-11T23:19:53.422Z,97166.00
2018-09-11T23:22:23.509Z,97168.00
2018-09-11T23:24:53.601Z,97169.00
2018-09-11T23:27:23.692Z,97160.00
2018-09-11T23:29:53.834Z,97164.00
2018-09-11T23:32:23.924Z,97161.00
2018-09-11T23:34:54.159Z,97161.00
2018-09-11T23:37:24.269Z,97172.00
2018-09-11T23:39:54.399Z,97159.00
2018-09-11T23:42:24.553Z,97164.00
2018-09-11T23:44:54.633Z,97154.00
2018-09-11T23:47:24.720Z,97162.00
2018-09-11T23:49:54.812Z,97157.00
2018-09-11T23:52:24.912Z,97160.00
2018-09-11T23:54:55.064Z,97156.00
2018-09-11T23:57:25.233Z,97158.00
2018-09-11T23:59:55.380Z,97152.00
